Time;durP1;ratioP1;P1;durP2;ratioP2;P2;SDS_P1;SDS_P2;PMS_P1;PMS_P2;Temp;Humidity;BMP_temperature;BMP_pressure;BME280_temperature;BME280_humidity;BME280_pressure;Samples;Min_cycle;Max_cycle;Signal;HPM_P1;HPM_P2
2024/04/11 00:00:54;;;;;;;;;;;;;;;;;;;;;
2024/04/11 00:03:49;;;;;;;;;;;;;;;;;;;;;
2024/04/11 00:06:41;;;;;;;7.55;2.42;;;;;;;10.40;100.00;98047.50;5090579;28;20484;-77
2024/04/11 00:09:20;;;;;;;7.38;2.63;;;;;;;10.33;100.00;98038.97;5072783;28;20028;-76
2024/04/11 00:11:54;;;;;;;2.83;2.15;;;;;;;10.37;100.00;98045.00;5073613;28;20125;-77
2024/04/11 00:14:49;;;;;;;;;;;;;;;;;;;;;
2024/04/11 00:17:34;;;;;;;8.68;2.70;;;;;;;10.27;100.00;98043.78;5090468;28;20476;-76
2024/04/11 00:20:27;;;;;;;10.40;2.60;;;;;;;10.30;100.00;98049.81;5074130;28;20031;-76
2024/04/11 00:23:47;;;;;;;2.88;2.30;;;;;;;10.27;100.00;98044.63;5076170;28;20031;-76
2024/04/11 00:26:51;;;;;;;;;;;;;;;;;;;;;
2024/04/11 00:29:51;;;;;;;3.30;2.33;;;;;;;10.22;100.00;98045.81;5037803;28;20029;-76
2024/04/11 00:32:35;;;;;;;3.58;2.05;;;;;;;10.19;100.00;98046.84;5036414;28;20111;-76
2024/04/11 00:38:59;;;;;;;;;;;;;;;;;;;;;
2024/04/11 00:41:37;;;;;;;;;;;;;;;;;;;;;
2024/04/11 00:44:42;;;;;;;5.18;2.63;;;;;;;9.86;100.00;98063.72;5092986;28;19916;-75
2024/04/11 00:47:43;;;;;;;;;;;;;;;;;;;;;
2024/04/11 00:50:41;;;;;;;6.15;2.75;;;;;;;9.70;100.00;98064.50;5078663;28;20031;-76
2024/04/11 00:53:28;;;;;;;;;;;;;;;;;;;;;
2024/04/11 00:56:13;;;;;;;5.00;2.67;;;;;;;9.66;100.00;98072.72;5101352;28;20030;-77
2024/04/11 00:58:54;;;;;;;3.20;2.55;;;;;;;9.49;100.00;98070.91;5112809;28;20043;-76
2024/04/11 01:01:58;;;;;;;;;;;;;;;;;;;;;
2024/04/11 01:04:50;;;;;;;7.57;2.65;;;;;;;9.44;100.00;98077.41;5098108;28;20031;-76
2024/04/11 01:07:21;;;;;;;5.78;2.50;;;;;;;9.45;100.00;98076.47;5096317;28;20093;-75
2024/04/11 01:13:04;;;;;;;3.80;2.35;;;;;;;9.36;100.00;98077.78;5038527;28;20052;-76
2024/04/11 01:16:15;;;;;;;;;;;;;;;;;;;;;
2024/04/11 01:19:09;;;;;;;3.83;2.45;;;;;;;9.19;100.00;98083.09;5071231;28;20432;-76
2024/04/11 01:25:39;;;;;;;;;;;;;;;;;;;;;
2024/04/11 01:32:03;;;;;;;3.35;2.45;;;;;;;9.22;100.00;98083.81;5102263;28;20122;-76
2024/04/11 01:35:25;;;;;;;5.97;2.35;;;;;;;9.29;100.00;98088.84;5112721;28;20028;-75
2024/04/11 01:38:28;;;;;;;4.70;2.40;;;;;;;9.17;100.00;98080.47;5113021;28;20043;-76
2024/04/11 01:47:37;;;;;;;2.67;1.80;;;;;;;9.19;100.00;98093.75;5105806;28;20333;-75
2024/04/11 01:50:11;;;;;;;4.07;2.55;;;;;;;9.05;100.00;98093.53;5095041;28;20085;-76
2024/04/11 01:52:54;;;;;;;5.78;2.40;;;;;;;8.98;100.00;98095.63;5095414;28;20111;-76
2024/04/11 01:56:39;;;;;;;;;;;;;;;;;;;;;
2024/04/11 01:59:06;;;;;;;4.90;2.53;;;;;;;8.81;100.00;98097.34;5108750;28;20028;-76
2024/04/11 02:02:08;;;;;;;3.97;2.28;;;;;;;8.72;100.00;98098.63;5113555;28;20027;-76
2024/04/11 02:05:02;;;;;;;6.10;3.30;;;;;;;8.62;100.00;98108.84;5130054;27;20402;-75
2024/04/11 02:08:03;;;;;;;4.50;2.83;;;;;;;8.59;100.00;98103.66;5092616;28;20031;-76
2024/04/11 02:11:11;;;;;;;5.40;2.58;;;;;;;8.57;100.00;98110.00;5094443;28;20130;-77
2024/04/11 02:14:19;;;;;;;5.72;2.50;;;;;;;8.49;100.00;98122.81;5116612;27;20276;-74
2024/04/11 02:17:19;;;;;;;5.40;2.22;;;;;;;8.44;100.00;98116.81;5093419;27;20042;-76
2024/04/11 02:21:37;;;;;;;;;;;;;;;;;;;;;
2024/04/11 02:24:00;;;;;;;4.13;2.25;;;;;;;8.42;100.00;98113.34;5100325;28;20028;-76
2024/04/11 02:26:36;;;;;;;7.68;2.90;;;;;;;8.39;100.00;98124.16;5120725;27;20023;-75
2024/04/11 02:29:33;;;;;;;3.45;2.45;;;;;;;8.34;100.00;98119.00;5113948;27;20035;-74
2024/04/11 02:38:36;;;;;;;8.02;2.90;;;;;;;8.46;100.00;98133.63;5107469;27;20053;-76
2024/04/11 02:41:16;;;;;;;5.00;3.30;;;;;;;8.46;100.00;98136.28;5132557;27;20526;-75
2024/04/11 02:44:05;;;;;;;8.55;2.97;;;;;;;8.55;100.00;98143.88;5132032;27;20440;-75
2024/04/11 02:47:24;;;;;;;7.35;3.75;;;;;;;8.53;100.00;98137.72;5117048;27;20023;-75
2024/04/11 02:54:03;;;;;;;;;;;;;;;;;;;;;
2024/04/11 02:56:51;;;;;;;;;;;;;;;;;;;;;
2024/04/11 03:03:21;;;;;;;;;;;;;;;;;;;;;
2024/04/11 03:07:01;;;;;;;14.93;4.40;;;;;;;8.35;100.00;98160.72;5117041;27;20027;-76
2024/04/11 03:13:21;;;;;;;80.80;26.67;;;;;;;8.14;100.00;98170.47;5123990;27;20443;-75
2024/04/11 03:16:30;;;;;;;33.88;15.00;;;;;;;8.05;100.00;98170.88;5132086;27;20092;-77
2024/04/11 03:19:42;;;;;;;;;;;;;;;;;;;;;
2024/04/11 03:22:59;;;;;;;39.97;16.08;;;;;;;7.92;100.00;98184.75;5120255;27;20033;-76
2024/04/11 03:29:27;;;;;;;24.03;7.43;;;;;;;7.65;100.00;98181.41;5028610;28;20238;-76
2024/04/11 03:42:22;;;;;;;7.80;4.20;;;;;;;7.65;100.00;98205.38;5068677;28;20047;-75
2024/04/11 03:48:49;;;;;;;25.63;7.45;;;;;;;7.49;100.00;98212.22;5076259;28;20375;-74
2024/04/11 03:51:39;;;;;;;30.13;10.90;;;;;;;7.47;100.00;98208.78;5110786;28;20068;-75
2024/04/11 03:58:45;;;;;;;46.42;15.93;;;;;;;7.43;100.00;98218.66;5096935;27;20059;-74
2024/04/11 04:01:33;;;;;;;27.25;9.00;;;;;;;7.31;100.00;98213.81;5082253;28;20444;-73
2024/04/11 04:04:27;;;;;;;;;;;;;;;;;;;;;
2024/04/11 04:07:33;;;;;;;18.85;7.07;;;;;;;7.30;100.00;98228.03;5116076;28;20061;-76
2024/04/11 04:13:19;;;;;;;;;;;;;;;;;;;;;
2024/04/11 04:16:05;;;;;;;9.20;4.63;;;;;;;7.29;100.00;98228.94;5129037;28;20114;-76
2024/04/11 04:19:02;;;;;;;16.88;4.88;;;;;;;7.40;100.00;98232.09;5110534;28;20027;-76
2024/04/11 04:21:41;;;;;;;15.98;4.85;;;;;;;7.44;100.00;98235.50;5111580;28;20410;-75
2024/04/11 04:24:35;;;;;;;16.77;4.70;;;;;;;7.51;100.00;98239.63;5127897;28;20027;-75
2024/04/11 04:27:27;;;;;;;8.88;4.45;;;;;;;7.59;100.00;98249.09;5124568;28;20045;-75
2024/04/11 04:30:23;;;;;;;11.73;4.85;;;;;;;7.66;100.00;98247.03;5113163;28;20091;-76
2024/04/11 04:33:20;;;;;;;12.10;5.38;;;;;;;7.61;100.00;98249.00;5102970;28;20055;-77
2024/04/11 04:36:09;;;;;;;;;;;;;;;;;;;;;
2024/04/11 04:39:47;;;;;;;;;;;;;;;;;;;;;
2024/04/11 04:42:57;;;;;;;8.82;4.90;;;;;;;8.07;100.00;98266.69;5094989;28;20034;-74
2024/04/11 04:45:56;;;;;;;;;;;;;;;;;;;;;
2024/04/11 04:48:59;;;;;;;20.63;7.85;;;;;;;8.40;100.00;98278.66;5091638;28;20052;-76
2024/04/11 04:52:05;;;;;;;;;;;;;;;;;;;;;
2024/04/11 04:55:44;;;;;;;28.38;6.28;;;;;;;8.71;100.00;98283.59;5128477;28;20449;-77
2024/04/11 04:59:07;;;;;;;17.42;5.95;;;;;;;8.92;100.00;98290.66;5024723;28;20420;-77
2024/04/11 05:01:54;;;;;;;28.77;6.40;;;;;;;9.00;100.00;98283.22;5048590;28;20049;-77
2024/04/11 05:04:54;;;;;;;;;;;;;;;;;;;;;
2024/04/11 05:11:22;;;;;;;17.25;6.30;;;;;;;9.31;100.00;98293.38;5103146;28;20031;-77
2024/04/11 05:17:37;;;;;;;20.00;7.20;;;;;;;9.57;100.00;98292.19;5101774;27;20110;-76
2024/04/11 05:33:46;;;;;;;22.65;7.65;;;;;;;11.33;100.00;98314.63;5054057;28;20068;-77
2024/04/11 05:36:45;;;;;;;14.13;7.55;;;;;;;13.03;100.00;98302.31;5072738;28;20104;-76
2024/04/11 05:39:59;;;;;;;19.48;6.85;;;;;;;14.64;100.00;98282.25;5052049;28;20040;-76
2024/04/11 05:42:46;;;;;;;;;;;;;;;;;;;;;
2024/04/11 05:45:35;;;;;;;;;;;;;;;;;;;;;
2024/04/11 05:48:19;;;;;;;8.50;5.72;;;;;;;18.05;95.37;98246.13;5085319;28;20480;-77
2024/04/11 05:57:37;;;;;;;14.65;6.47;;;;;;;20.25;67.55;98249.75;5045387;28;20056;-78
2024/04/11 06:01:05;;;;;;;;;;;;;;;;;;;;;
2024/04/11 06:04:05;;;;;;;13.90;6.07;;;;;;;21.28;59.77;98242.94;5085528;28;20046;-77
2024/04/11 06:07:14;;;;;;;14.07;9.00;;;;;;;21.46;60.38;98244.78;5058946;28;20047;-77
2024/04/11 06:13:31;;;;;;;13.50;5.50;;;;;;;21.85;59.47;98261.03;5068206;28;20040;-77
2024/04/11 06:20:01;;;;;;;21.45;7.80;;;;;;;21.71;56.52;98259.66;5054991;28;20078;-76
2024/04/11 06:23:19;;;;;;;;;;;;;;;;;;;;;
2024/04/11 06:43:42;;;;;;;;;;;;;;;;;;;;;
2024/04/11 06:46:27;;;;;;;;;;;;;;;21.99;51.54;98277.81;5007216;28;20040;-77
2024/04/11 06:53:09;;;;;;;;;;;;;;;;;;;;;
2024/04/11 06:56:00;;;;;;;27.75;7.78;;;;;;;25.73;43.43;98259.34;5081719;28;20047;-78
2024/04/11 06:58:50;;;;;;;;;;;;;;;;;;;;;
2024/04/11 07:01:55;;;;;;;11.25;3.95;;;;;;;23.39;48.47;98282.88;5072910;28;20027;-77
2024/04/11 07:05:17;;;;;;;;;;;;;;;;;;;;;
2024/04/11 07:07:54;;;;;;;15.15;4.22;;;;;;;25.37;44.75;98274.41;5081864;28;20024;-76
2024/04/11 07:14:20;;;;;;;;;;;;;;;;;;;;;
2024/04/11 07:17:33;;;;;;;12.15;4.13;;;;;;;24.71;47.30;98300.72;5087667;28;20442;-77
2024/04/11 07:20:23;;;;;;;;;;;;;;;;;;;;;
2024/04/11 07:23:08;;;;;;;;;;;;;;;;;;;;;
2024/04/11 07:26:13;;;;;;;14.75;4.32;;;;;;;26.56;41.82;98284.56;5088336;28;20024;-77
2024/04/11 07:29:06;;;;;;;7.65;3.92;;;;;;;27.59;40.22;98283.34;5081445;28;20515;-76
2024/04/11 07:35:37;;;;;;;5.65;3.90;;;;;;;28.16;38.95;98279.06;5079886;28;20044;-76
2024/04/11 07:51:24;;;;;;;10.23;2.97;;;;;;;28.30;36.86;98283.72;5080514;28;20102;-77
2024/04/11 08:04:34;;;;;;;4.85;2.17;;;;;;;30.82;33.41;98276.00;5069757;28;20039;-77
2024/04/11 08:07:46;;;;;;;;;;;;;;;;;;;;;
2024/04/11 08:13:57;;;;;;;;;;;;;;;;;;;;;
2024/04/11 08:16:50;;;;;;;;;;;;;;;;;;;;;
2024/04/11 08:20:12;;;;;;;2.72;2.10;;;;;;;30.77;31.46;98281.28;4973490;28;20044;-76
2024/04/11 08:23:04;;;;;;;2.53;2.33;;;;;;;29.26;31.97;98274.44;4987120;28;20038;-76
2024/04/11 08:26:14;;;;;;;;;;;;;;;;;;;;;
2024/04/11 08:36:18;;;;;;;;;;;;;;;;;;;;;
2024/04/11 08:39:56;;;;;;;;;;;;;;;;;;;;;
2024/04/11 08:43:00;;;;;;;3.57;2.20;;;;;;;32.32;29.78;98283.00;5085155;28;20109;-75
2024/04/11 08:46:26;;;;;;;13.27;2.97;;;;;;;32.97;28.63;98282.00;5094050;28;20020;-76
2024/04/11 08:49:53;;;;;;;4.15;2.50;;;;;;;32.50;28.60;98275.72;5094038;28;20395;-76
2024/04/11 08:58:44;;;;;;;8.55;2.50;;;;;;;33.49;27.68;98279.00;5091771;28;20129;-76
2024/04/11 09:05:01;;;;;;;5.78;2.70;;;;;;;33.64;27.44;98264.84;5085672;28;20083;-76
2024/04/11 09:07:51;;;;;;;2.85;2.47;;;;;;;33.43;27.18;98254.94;5093841;28;20427;-76
2024/04/11 09:11:04;;;;;;;;;;;;;;;;;;;;;
2024/04/11 09:17:34;;;;;;;5.22;2.17;;;;;;;34.77;26.16;98252.53;5088066;28;20484;-76
2024/04/11 09:20:47;;;;;;;3.85;2.25;;;;;;;33.29;27.14;98253.28;5071292;28;20035;-76
2024/04/11 09:23:44;;;;;;;7.80;2.90;;;;;;;31.90;27.72;98256.56;4991393;28;20444;-77
2024/04/11 09:26:57;;;;;;;6.57;2.33;;;;;;;32.36;26.76;98256.56;5083393;28;20040;-76
2024/04/11 09:29:52;;;;;;;4.78;2.45;;;;;;;33.27;26.15;98261.00;5077737;28;20028;-76
2024/04/11 09:35:52;;;;;;;5.10;2.30;;;;;;;32.96;26.96;98263.66;5071638;28;20066;-75
2024/04/11 09:39:05;;;;;;;4.97;2.53;;;;;;;32.66;26.89;98269.75;5076557;28;20173;-76
2024/04/11 09:42:36;;;;;;;3.45;2.65;;;;;;;32.01;26.85;98244.84;5093199;28;20509;-77
2024/04/11 09:48:47;;;;;;;5.30;2.33;;;;;;;32.85;25.76;98262.44;5067757;28;20459;-76
2024/04/11 09:52:12;;;;;;;4.20;2.30;;;;;;;33.66;25.29;98254.38;5076262;28;20035;-75
2024/04/11 09:55:40;;;;;;;4.03;2.42;;;;;;;33.81;24.37;98246.56;5090882;28;20039;-76
2024/04/11 09:58:45;;;;;;;3.47;2.33;;;;;;;34.44;24.09;98238.97;5092898;28;20533;-76
2024/04/11 10:04:58;;;;;;;4.60;2.42;;;;;;;35.58;23.52;98243.81;5066763;28;20113;-77
2024/04/11 10:11:11;;;;;;;;;;;;;;;;;;;;;
2024/04/11 10:14:04;;;;;;;5.88;2.10;;;;;;;34.06;25.15;98238.22;5073574;28;20034;-77
2024/04/11 10:20:39;;;;;;;;;;;;;;;;;;;;;
2024/04/11 10:24:13;;;;;;;;;;;;;;;;;;;;;
2024/04/11 10:30:37;;;;;;;;;;;;;;;;;;;;;
2024/04/11 10:33:13;;;;;;;8.82;4.97;;;;;;;35.74;22.92;98244.00;4999159;28;20045;-74
2024/04/11 10:36:16;;;;;;;;;;;;;;;;;;;;;
2024/04/11 10:39:25;;;;;;;4.68;2.15;;;;;;;36.23;23.42;98241.91;5013447;28;20432;-76
2024/04/11 10:43:11;;;;;;;11.55;4.50;;;;;;;37.02;22.99;98251.59;5029497;28;20041;-75
2024/04/11 10:48:24;;;;;;;;;;;;;;;34.39;23.86;98238.81;5064390;28;20170;-73
2024/04/11 10:51:20;;;;;;;;;;;;;;;;;;;;;
2024/04/11 11:01:18;;;;;;;3.58;2.40;;;;;;;35.30;22.88;98245.25;4964472;28;20451;-76
2024/04/11 11:04:32;;;;;;;3.72;2.13;;;;;;;34.29;22.82;98244.06;5017848;28;20083;-75
2024/04/11 11:07:35;;;;;;;3.13;2.45;;;;;;;35.73;21.70;98238.66;5021298;28;20064;-76
2024/04/11 11:10:41;;;;;;;6.40;2.22;;;;;;;34.21;23.17;98238.75;5009208;28;20513;-76
2024/04/11 11:13:32;;;;;;;;;;;;;;;;;;;;;
2024/04/11 11:16:57;;;;;;;;;;;;;;;;;;;;;
2024/04/11 11:19:22;;;;;;;;;;;;;;;;;;;;;
2024/04/11 11:25:43;;;;;;;7.43;2.47;;;;;;;34.67;22.73;98227.22;5065249;28;20039;-78
2024/04/11 11:28:43;;;;;;;4.22;2.25;;;;;;;34.69;22.70;98233.38;5072444;28;20036;-75
2024/04/11 11:35:05;;;;;;;5.28;2.28;;;;;;;35.50;22.89;98231.03;5072822;28;21759;-77
2024/04/11 11:37:51;;;;;;;;;;;;;;;;;;;;;
2024/04/11 11:40:46;;;;;;;4.72;2.05;;;;;;;35.02;22.88;98217.13;5088293;28;20043;-77
2024/04/11 11:43:24;;;;;;;4.97;2.20;;;;;;;34.97;23.43;98225.34;5073523;28;20530;-76
2024/04/11 11:52:51;;;;;;;6.63;2.83;;;;;;;35.25;23.31;98216.44;5016758;28;20485;-77
2024/04/11 11:55:55;;;;;;;;;;;;;;;;;;;;;
2024/04/11 11:59:12;;;;;;;;;;;;;;;;;;;;;
2024/04/11 12:02:19;;;;;;;;;;;;;;;;;;;;;
2024/04/11 12:05:13;;;;;;;5.85;2.38;;;;;;;34.81;23.88;98198.16;5048555;28;20029;-77
2024/04/11 12:07:48;;;;;;;3.53;2.35;;;;;;;34.43;24.07;98200.28;5086362;28;20111;-76
2024/04/11 12:18:10;;;;;;;3.33;2.38;;;;;;;33.46;24.57;98185.09;5016407;28;20032;-76
2024/04/11 12:20:46;;;;;;;4.10;2.30;;;;;;;34.63;24.15;98190.69;5032157;28;20551;-76
2024/04/11 12:23:51;;;;;;;3.70;2.20;;;;;;;34.75;23.95;98186.03;5060604;28;20035;-76
2024/04/11 12:26:42;;;;;;;2.70;2.10;;;;;;;34.93;24.28;98184.31;5094315;28;20020;-77
2024/04/11 12:29:42;;;;;;;;;;;;;;;;;;;;;
2024/04/11 12:43:01;;;;;;;4.82;2.33;;;;;;;34.17;24.36;98173.66;5012069;28;20042;-77
2024/04/11 12:49:35;;;;;;;3.63;2.13;;;;;;;33.09;25.32;98169.34;5008091;28;20552;-78
2024/04/11 12:56:09;;;;;;;6.82;2.60;;;;;;;33.76;24.67;98161.19;5005297;28;20030;-78
2024/04/11 12:59:42;;;;;;;;;;;;;;;;;;;;;
2024/04/11 13:02:41;;;;;;;7.97;2.88;;;;;;;34.22;24.44;98163.53;5093936;28;20036;-79
2024/04/11 13:05:51;;;;;;;5.13;2.65;;;;;;;34.96;23.64;98151.31;5093648;28;20032;-78
2024/04/11 13:09:18;;;;;;;3.25;2.25;;;;;;;33.99;24.32;98149.44;5092831;28;20055;-77
2024/04/11 13:12:26;;;;;;;;;;;;;;;;;;;;;
2024/04/11 13:15:22;;;;;;;;;;;;;;;;;;;;;
2024/04/11 13:22:08;;;;;;;2.80;2.50;;;;;;;33.11;26.15;98162.50;5085857;28;20067;-78
2024/04/11 13:25:10;;;;;;;7.35;2.10;;;;;;;33.29;25.43;98164.50;5093087;28;20400;-77
2024/04/11 13:28:36;;;;;;;7.82;5.90;;;;;;;33.18;25.69;98157.75;5092487;28;20111;-77
2024/04/11 13:35:14;;;;;;;8.05;3.03;;;;;;;31.76;26.66;98150.53;5007085;28;20817;-81
2024/04/11 13:38:17;;;;;;;6.13;2.88;;;;;;;32.29;25.79;98154.09;5011022;28;20038;-76
2024/04/11 13:44:40;;;;;;;5.68;3.50;;;;;;;32.12;25.80;98144.53;5074263;28;20035;-77
2024/04/11 13:51:09;;;;;;;4.63;3.15;;;;;;;31.87;26.04;98146.28;5010940;28;20122;-76
2024/04/11 13:54:32;;;;;;;6.45;3.47;;;;;;;31.74;27.09;98147.13;5023301;28;20062;-76
2024/04/11 13:57:47;;;;;;;4.65;3.10;;;;;;;31.50;27.70;98143.06;5048406;28;20065;-77
2024/04/11 14:00:47;;;;;;;8.38;3.40;;;;;;;31.13;28.06;98146.44;5047765;28;20040;-79
2024/04/11 14:03:31;;;;;;;2.78;2.35;;;;;;;30.49;27.40;98134.94;5035393;28;20183;-79
2024/04/11 14:12:59;;;;;;;5.03;3.20;;;;;;;30.58;28.24;98140.09;4929996;28;20034;-78
2024/04/11 14:16:16;;;;;;;6.10;2.90;;;;;;;30.41;28.70;98148.94;5014679;28;20038;-77
2024/04/11 14:25:43;;;;;;;5.85;3.45;;;;;;;28.59;30.32;98145.19;4991170;28;20030;-79
2024/04/11 14:28:54;;;;;;;;;;;;;;;;;;;;;
2024/04/11 14:32:06;;;;;;;11.13;3.03;;;;;;;27.20;31.23;98146.88;4968045;28;20065;-78
2024/04/11 14:37:59;;;;;;;;;;;;;;;;;;;;;
2024/04/11 14:41:04;;;;;;;13.65;2.67;;;;;;;26.35;33.63;98157.06;5030262;28;20041;-78
2024/04/11 14:44:22;;;;;;;7.43;4.03;;;;;;;26.32;33.49;98159.28;5029821;28;20053;-78
2024/04/11 14:47:28;;;;;;;10.32;3.30;;;;;;;26.05;34.17;98154.25;5030320;28;20152;-78
2024/04/11 14:50:51;;;;;;;;;;;;;;;;;;;;;
2024/04/11 14:53:48;;;;;;;8.75;3.22;;;;;;;25.62;35.31;98172.00;5053289;28;20033;-77
2024/04/11 14:57:08;;;;;;;;;;;;;;;;;;;;;
2024/04/11 15:03:00;;;;;;;;;;;;;;;25.33;35.49;98165.16;5038659;28;20035;-78
2024/04/11 15:07:11;;;;;;;;;;;;;;;;;;;;;
2024/04/11 15:09:44;;;;;;;;;;;;;;;;;;;;;
2024/04/11 15:13:12;;;;;;;9.60;3.63;;;;;;;24.96;36.42;98173.03;5057335;28;20510;-78
2024/04/11 15:18:43;;;;;;;8.02;3.70;;;;;;;24.77;36.78;98179.63;5035819;28;20056;-77
2024/04/11 15:22:44;;;;;;;;;;;;;;;;;;;;;
2024/04/11 15:25:28;;;;;;;21.65;13.93;;;;;;;24.56;36.98;98175.66;5017330;28;20045;-78
2024/04/11 15:34:41;;;;;;;7.72;4.20;;;;;;;24.20;37.70;98192.31;5068405;28;20047;-75
2024/04/11 15:40:57;;;;;;;5.93;3.92;;;;;;;23.97;38.35;98196.59;5055704;28;20075;-74
2024/04/11 15:43:42;;;;;;;10.65;4.60;;;;;;;23.97;38.32;98196.59;5070505;28;20043;-75
2024/04/11 15:46:53;;;;;;;8.40;3.80;;;;;;;23.87;38.19;98179.44;5070648;28;20026;-76
2024/04/11 15:49:57;;;;;;;8.15;3.55;;;;;;;23.79;37.96;98186.75;5070265;28;20035;-76
2024/04/11 15:52:34;;;;;;;13.18;4.30;;;;;;;23.71;38.41;98193.03;5069804;28;20047;-76
2024/04/11 15:56:02;;;;;;;;;;;;;;;;;;;;;
2024/04/11 15:59:06;;;;;;;6.72;4.50;;;;;;;23.53;38.96;98200.41;5070756;28;20034;-72
2024/04/11 16:02:05;;;;;;;10.40;6.25;;;;;;;23.49;39.17;98199.03;5044715;28;20044;-75
2024/04/11 16:05:24;;;;;;;8.05;3.63;;;;;;;23.40;38.98;98199.97;5037275;28;20094;-77
2024/04/11 16:14:16;;;;;;;;;;;;;;;;;;;;;
2024/04/11 16:17:31;;;;;;;;;;;;;;;;;;;;;
2024/04/11 16:20:31;;;;;;;11.15;4.75;;;;;;;22.93;40.93;98216.59;5065119;28;20047;-75
2024/04/11 16:27:21;;;;;;;;;;;;;;;;;;;;;
2024/04/11 16:33:54;;;;;;;12.13;6.80;;;;;;;22.48;42.36;98226.66;4972041;28;20089;-77
2024/04/11 16:37:06;;;;;;;10.10;6.43;;;;;;;22.36;42.76;98227.88;5067410;28;20164;-77
2024/04/11 16:40:06;;;;;;;7.43;4.30;;;;;;;22.28;42.96;98230.47;5054826;28;20127;-77
2024/04/11 16:49:53;;;;;;;12.32;4.63;;;;;;;21.86;44.32;98247.28;5044682;28;20041;-74
2024/04/11 16:52:57;;;;;;;;;;;;;;;;;;;;;
2024/04/11 16:55:54;;;;;;;8.45;4.45;;;;;;;21.63;45.04;98254.06;5024667;28;20028;-79
2024/04/11 16:58:58;;;;;;;;;;;;;;;;;;;;;
2024/04/11 17:02:03;;;;;;;16.30;5.55;;;;;;;21.33;45.98;98259.69;5052638;28;20036;-74
2024/04/11 17:05:28;;;;;;;;;;;;;;;;;;;;;
2024/04/11 17:08:43;;;;;;;;;;;;;;;;;;;;;
2024/04/11 17:21:36;;;;;;;33.88;5.28;;;;;;;20.48;51.50;98297.50;5068807;28;20075;-76
2024/04/11 17:24:35;;;;;;;14.20;4.78;;;;;;;20.41;52.16;98301.75;5088445;28;20043;-76
2024/04/11 17:27:27;;;;;;;19.48;9.07;;;;;;;20.29;54.74;98294.72;5057045;28;20040;-75
2024/04/11 17:33:41;;;;;;;13.38;6.38;;;;;;;20.05;58.26;98308.59;5090550;28;20027;-77
2024/04/11 17:40:07;;;;;;;;;;;;;;;;;;;;;
2024/04/11 17:43:17;;;;;;;27.90;8.15;;;;;;;19.47;69.90;98334.50;5117132;27;20542;-76
2024/04/11 17:58:22;;;;;;;11.52;5.82;;;;;;;18.50;80.56;98369.75;5095216;28;20092;-77
2024/04/11 18:01:03;;;;;;;14.40;7.95;;;;;;;18.34;84.66;98374.63;5110502;28;20027;-77
2024/04/11 18:03:58;;;;;;;17.35;7.93;;;;;;;18.28;85.33;98380.53;5121602;27;20071;-76
2024/04/11 18:06:53;;;;;;;;;;;;;;;;;;;;;
2024/04/11 18:09:41;;;;;;;14.45;6.05;;;;;;;18.12;86.60;98390.88;5101504;28;20040;-77
2024/04/11 18:12:47;;;;;;;12.88;5.93;;;;;;;18.07;88.63;98388.53;5110454;28;20176;-77
2024/04/11 18:16:08;;;;;;;11.32;5.40;;;;;;;17.96;88.49;98391.22;5103669;28;20449;-77
2024/04/11 18:19:09;;;;;;;10.93;5.70;;;;;;;17.82;89.25;98389.59;5081276;28;20059;-75
2024/04/11 18:31:56;;;;;;;27.23;11.63;;;;;;;17.50;92.09;98411.97;5127158;27;20095;-76
2024/04/11 18:34:58;;;;;;;13.63;7.65;;;;;;;17.36;93.79;98418.41;5124074;27;20035;-75
2024/04/11 18:38:17;;;;;;;;;;;;;;;;;;;;;
2024/04/11 18:41:22;;;;;;;;;;;;;;;;;;;;;
2024/04/11 18:48:29;;;;;;;;;;;;;;;;;;;;;
2024/04/11 18:51:38;;;;;;;15.27;4.90;;;;;;;16.86;100.00;98441.06;5089310;28;20039;-76
2024/04/11 18:54:53;;;;;;;;;;;;;;;;;;;;;
2024/04/11 19:01:40;;;;;;;;;;;;;;;;;;;;;
2024/04/11 19:10:15;;;;;;;9.15;4.60;;;;;;;16.15;100.00;98455.16;5062986;28;20028;-77
2024/04/11 19:13:10;;;;;;;8.38;4.60;;;;;;;15.91;100.00;98461.38;5070614;28;20032;-77
2024/04/11 19:16:35;;;;;;;9.88;4.63;;;;;;;15.81;100.00;98468.41;5070591;28;20032;-78
2024/04/11 19:23:05;;;;;;;;;;;;;;;;;;;;;
2024/04/11 19:29:14;;;;;;;12.85;5.00;;;;;;;15.69;100.00;98460.16;5026761;28;20049;-76
2024/04/11 19:32:31;;;;;;;13.35;5.00;;;;;;;15.53;100.00;98462.19;5057923;28;20136;-76
2024/04/11 19:35:42;;;;;;;;;;;;;;;;;;;;;
2024/04/11 19:44:51;;;;;;;12.60;5.05;;;;;;;15.36;100.00;98464.22;5050873;28;20423;-76
2024/04/11 19:47:55;;;;;;;;;;;;;;;;;;;;;
2024/04/11 19:50:48;;;;;;;;;;;;;;;;;;;;;
2024/04/11 19:54:04;;;;;;;;;;;;;;;;;;;;;
2024/04/11 19:57:27;;;;;;;;;;;;;;;;;;;;;
2024/04/11 20:06:26;;;;;;;14.10;5.43;;;;;;;14.95;100.00;98475.06;5087898;28;20464;-76
2024/04/11 20:09:14;;;;;;;12.85;4.82;;;;;;;14.87;100.00;98482.75;5075238;28;20044;-76
2024/04/11 20:15:42;;;;;;;;;;;;;;;;;;;;;
2024/04/11 20:18:30;;;;;;;10.68;4.90;;;;;;;14.78;100.00;98486.03;5006113;28;20037;-77
2024/04/11 20:21:24;;;;;;;12.30;5.03;;;;;;;14.71;100.00;98472.09;5009179;28;20493;-76
2024/04/11 20:24:38;;;;;;;8.55;5.10;;;;;;;14.51;100.00;98475.19;5007831;28;20092;-76
2024/04/11 20:27:35;;;;;;;10.50;5.47;;;;;;;14.48;100.00;98491.53;4993855;28;20145;-76
2024/04/11 20:30:34;;;;;;;21.33;6.00;;;;;;;14.41;100.00;98479.41;5008532;28;20120;-76
2024/04/11 20:33:22;;;;;;;11.40;5.43;;;;;;;14.26;100.00;98473.13;5053736;28;20444;-75
2024/04/11 20:36:49;;;;;;;9.00;5.40;;;;;;;14.23;100.00;98488.59;5090589;28;20048;-76
2024/04/11 20:40:00;;;;;;;9.38;4.90;;;;;;;14.11;100.00;98493.78;5094563;28;20525;-78
2024/04/11 20:43:28;;;;;;;;;;;;;;;;;;;;;
2024/04/11 20:46:30;;;;;;;;;;;;;;;;;;;;;
2024/04/11 21:36:03;;;;;;;;;;;;;;;;;;;;;
2024/04/11 21:42:57;;;;;;;;;;;;;;;;;;;;;
2024/04/11 21:48:42;;;;;;;11.27;5.68;;;;;;;13.42;100.00;98523.00;4942473;28;20050;-77
2024/04/11 21:52:04;;;;;;;12.35;5.13;;;;;;;13.34;100.00;98533.34;5055698;28;20032;-77
2024/04/11 21:55:00;;;;;;;12.85;5.55;;;;;;;13.29;100.00;98521.97;5068603;28;20059;-77
2024/04/11 21:58:12;;;;;;;;;;;;;;;;;;;;;
2024/04/11 22:01:23;;;;;;;;;;;;;;;;;;;;;
2024/04/11 22:07:40;;;;;;;12.27;6.50;;;;;;;13.18;100.00;98527.13;5057983;28;20571;-76
2024/04/11 22:10:27;;;;;;;11.68;6.03;;;;;;;13.09;100.00;98538.38;5075542;28;20084;-75
2024/04/11 22:13:35;;;;;;;;;;;;;;;;;;;;;
2024/04/11 22:16:36;;;;;;;;;;;;;;;;;;;;;
2024/04/11 22:19:59;;;;;;;10.98;5.07;;;;;;;12.73;100.00;98545.75;5092575;28;20039;-78
2024/04/11 22:22:56;;;;;;;;;;;;;;;;;;;;;
2024/04/11 22:25:58;;;;;;;14.63;6.32;;;;;;;12.44;100.00;98539.28;5085630;28;20050;-77
2024/04/11 22:32:12;;;;;;;;;;;;;;;;;;;;;
2024/04/11 22:35:27;;;;;;;;;;;;;;;;;;;;;
2024/04/11 22:38:49;;;;;;;23.13;7.25;;;;;;;12.42;100.00;98528.63;5092400;28;20035;-77
2024/04/11 22:42:08;;;;;;;17.95;6.53;;;;;;;12.49;100.00;98531.81;5084494;28;20372;-75
2024/04/11 22:48:23;;;;;;;11.23;5.93;;;;;;;12.30;100.00;98536.47;5074810;28;20119;-77
2024/04/11 22:51:20;;;;;;;11.20;6.32;;;;;;;12.29;100.00;98535.59;5089056;28;20491;-77
2024/04/11 22:57:39;;;;;;;10.63;6.00;;;;;;;12.09;100.00;98525.03;5029941;28;20488;-77
2024/04/11 23:00:44;;;;;;;;;;;;;;;;;;;;;
2024/04/11 23:16:47;;;;;;;;;;;;;;;;;;;;;
2024/04/11 23:19:58;;;;;;;9.68;6.20;;;;;;;11.83;100.00;98536.25;5066621;28;20410;-76
2024/04/11 23:23:02;;;;;;;12.73;6.15;;;;;;;11.81;100.00;98546.19;5075591;28;20020;-76
2024/04/11 23:25:49;;;;;;;12.30;7.25;;;;;;;11.80;100.00;98531.03;5068575;28;20502;-76
2024/04/11 23:28:30;;;;;;;15.35;6.53;;;;;;;11.79;100.00;98529.28;5091271;28;20415;-77
2024/04/11 23:32:01;;;;;;;;;;;;;;;;;;;;;
2024/04/11 23:35:30;;;;;;;10.35;5.93;;;;;;;11.83;100.00;98537.13;5070388;28;20470;-76
2024/04/11 23:38:17;;;;;;;11.25;6.03;;;;;;;11.84;100.00;98535.31;5070388;28;20036;-77
2024/04/11 23:41:24;;;;;;;9.73;6.07;;;;;;;11.75;100.00;98536.63;5091211;28;20031;-77
2024/04/11 23:43:59;;;;;;;14.70;6.53;;;;;;;11.65;100.00;98550.56;5089331;28;20039;-77
2024/04/11 23:47:01;;;;;;;;;;;;;;;;;;;;;
2024/04/11 23:49:48;;;;;;;9.65;6.15;;;;;;;11.42;100.00;98547.19;5075250;28;20772;-77
2024/04/11 23:56:58;;;;;;;;;;;;;;;;;;;;;
2024/04/11 23:59:44;;;;;;;11.75;6.53;;;;;;;11.29;100.00;98551.41;5078421;28;20457;-77
